sensor_id;sensor_type;location;lat;lon;timestamp;pressure;altitude;pressure_sealevel;temperature;humidity
56825;BME280;42705;50.326;18.772;2023-02-22T00:00:45;98469.66;;;4.90;66.89
56825;BME280;42705;50.326;18.772;2023-02-22T00:06:16;98465.05;;;4.95;67.10
56825;BME280;42705;50.326;18.772;2023-02-22T00:11:37;98464.17;;;4.97;66.99
56825;BME280;42705;50.326;18.772;2023-02-22T00:16:58;98463.11;;;4.95;67.09
56825;BME280;42705;50.326;18.772;2023-02-22T00:22:19;98465.95;;;4.89;67.07
56825;BME280;42705;50.326;18.772;2023-02-22T00:27:40;98467.88;;;4.83;67.03
56825;BME280;42705;50.326;18.772;2023-02-22T00:33:02;98470.25;;;4.84;67.09
56825;BME280;42705;50.326;18.772;2023-02-22T00:38:24;98472.73;;;4.86;67.12
56825;BME280;42705;50.326;18.772;2023-02-22T00:43:45;98477.02;;;4.89;67.35
56825;BME280;42705;50.326;18.772;2023-02-22T00:49:08;98475.34;;;4.88;67.20
56825;BME280;42705;50.326;18.772;2023-02-22T00:54:29;98479.52;;;4.83;67.18
56825;BME280;42705;50.326;18.772;2023-02-22T00:59:52;98480.92;;;4.77;67.36
56825;BME280;42705;50.326;18.772;2023-02-22T01:05:13;98480.15;;;4.81;67.39
56825;BME280;42705;50.326;18.772;2023-02-22T01:10:37;98481.93;;;4.90;67.49
56825;BME280;42705;50.326;18.772;2023-02-22T01:15:59;98481.61;;;4.95;67.47
56825;BME280;42705;50.326;18.772;2023-02-22T01:21:20;98474.95;;;5.02;67.53
56825;BME280;42705;50.326;18.772;2023-02-22T01:26:43;98480.55;;;5.08;67.39
56825;BME280;42705;50.326;18.772;2023-02-22T01:32:09;98480.79;;;5.07;67.21
56825;BME280;42705;50.326;18.772;2023-02-22T01:37:31;98476.42;;;5.14;67.22
56825;BME280;42705;50.326;18.772;2023-02-22T01:42:57;98472.68;;;5.23;67.38
56825;BME280;42705;50.326;18.772;2023-02-22T01:53:53;98474.73;;;5.28;67.25
56825;BME280;42705;50.326;18.772;2023-02-22T01:59:16;98472.04;;;5.27;67.15
56825;BME280;42705;50.326;18.772;2023-02-22T02:04:39;98475.27;;;5.23;67.03
56825;BME280;42705;50.326;18.772;2023-02-22T02:10:13;98469.66;;;5.26;67.06
56825;BME280;42705;50.326;18.772;2023-02-22T02:15:35;98469.98;;;5.31;67.22
56825;BME280;42705;50.326;18.772;2023-02-22T02:27:10;98473.01;;;5.28;67.12
56825;BME280;42705;50.326;18.772;2023-02-22T02:32:50;98483.93;;;5.18;67.09
56825;BME280;42705;50.326;18.772;2023-02-22T02:38:49;98479.48;;;5.11;67.16
56825;BME280;42705;50.326;18.772;2023-02-22T02:44:58;98480.53;;;5.17;67.37
56825;BME280;42705;50.326;18.772;2023-02-22T02:50:28;98478.27;;;5.12;67.33
56825;BME280;42705;50.326;18.772;2023-02-22T02:55:52;98480.55;;;4.98;67.29
56825;BME280;42705;50.326;18.772;2023-02-22T03:13:00;98481.95;;;4.82;67.91
56825;BME280;42705;50.326;18.772;2023-02-22T03:18:39;98477.05;;;4.75;68.06
56825;BME280;42705;50.326;18.772;2023-02-22T03:29:27;98486.54;;;4.71;67.99
56825;BME280;42705;50.326;18.772;2023-02-22T03:34:58;98488.60;;;4.68;68.40
56825;BME280;42705;50.326;18.772;2023-02-22T03:40:30;98495.91;;;4.65;68.30
56825;BME280;42705;50.326;18.772;2023-02-22T03:45:53;98496.73;;;4.65;68.64
56825;BME280;42705;50.326;18.772;2023-02-22T03:51:15;98497.05;;;4.74;68.59
56825;BME280;42705;50.326;18.772;2023-02-22T03:56:48;98496.30;;;4.75;68.65
56825;BME280;42705;50.326;18.772;2023-02-22T04:02:13;98494.16;;;4.68;68.58
56825;BME280;42705;50.326;18.772;2023-02-22T04:07:41;98498.10;;;4.60;68.75
56825;BME280;42705;50.326;18.772;2023-02-22T04:13:03;98501.12;;;4.43;68.65
56825;BME280;42705;50.326;18.772;2023-02-22T04:18:29;98503.50;;;4.33;68.92
56825;BME280;42705;50.326;18.772;2023-02-22T04:23:52;98499.42;;;4.32;69.34
56825;BME280;42705;50.326;18.772;2023-02-22T04:29:15;98495.95;;;4.26;69.39
56825;BME280;42705;50.326;18.772;2023-02-22T04:34:39;98493.59;;;4.20;69.58
56825;BME280;42705;50.326;18.772;2023-02-22T04:40:02;98488.21;;;4.23;69.64
56825;BME280;42705;50.326;18.772;2023-02-22T04:45:29;98493.03;;;4.32;69.89
56825;BME280;42705;50.326;18.772;2023-02-22T04:50:52;98488.51;;;4.34;69.83
56825;BME280;42705;50.326;18.772;2023-02-22T04:56:18;98492.53;;;4.31;69.58
56825;BME280;42705;50.326;18.772;2023-02-22T05:01:40;98489.93;;;4.20;69.53
56825;BME280;42705;50.326;18.772;2023-02-22T05:07:02;98489.74;;;4.18;69.46
56825;BME280;42705;50.326;18.772;2023-02-22T05:12:26;98489.98;;;4.14;69.94
56825;BME280;42705;50.326;18.772;2023-02-22T05:17:48;98495.47;;;4.10;69.80
56825;BME280;42705;50.326;18.772;2023-02-22T05:23:10;98499.17;;;3.92;69.64
56825;BME280;42705;50.326;18.772;2023-02-22T05:28:32;98502.45;;;3.75;69.98
56825;BME280;42705;50.326;18.772;2023-02-22T05:33:54;98500.84;;;3.62;70.30
56825;BME280;42705;50.326;18.772;2023-02-22T05:39:16;98507.36;;;3.68;70.88
56825;BME280;42705;50.326;18.772;2023-02-22T05:44:38;98505.23;;;3.83;71.01
56825;BME280;42705;50.326;18.772;2023-02-22T05:50:00;98507.07;;;3.98;71.23
56825;BME280;42705;50.326;18.772;2023-02-22T05:55:23;98511.91;;;4.07;70.93
56825;BME280;42705;50.326;18.772;2023-02-22T06:00:45;98517.23;;;4.18;70.82
56825;BME280;42705;50.326;18.772;2023-02-22T06:06:07;98523.86;;;4.31;70.80
56825;BME280;42705;50.326;18.772;2023-02-22T06:11:31;98534.58;;;4.37;70.74
56825;BME280;42705;50.326;18.772;2023-02-22T06:16:54;98533.76;;;4.36;70.66
56825;BME280;42705;50.326;18.772;2023-02-22T06:22:17;98537.11;;;4.45;70.71
56825;BME280;42705;50.326;18.772;2023-02-22T06:27:39;98545.48;;;4.58;70.65
56825;BME280;42705;50.326;18.772;2023-02-22T06:33:02;98552.81;;;4.65;70.40
56825;BME280;42705;50.326;18.772;2023-02-22T06:38:25;98556.91;;;4.60;70.47
56825;BME280;42705;50.326;18.772;2023-02-22T06:43:48;98562.45;;;4.60;70.32
56825;BME280;42705;50.326;18.772;2023-02-22T06:49:12;98570.21;;;4.72;70.52
56825;BME280;42705;50.326;18.772;2023-02-22T06:54:34;98573.92;;;4.89;70.57
56825;BME280;42705;50.326;18.772;2023-02-22T06:59:56;98577.55;;;4.97;70.41
56825;BME280;42705;50.326;18.772;2023-02-22T07:05:20;98582.21;;;5.05;70.35
56825;BME280;42705;50.326;18.772;2023-02-22T07:10:42;98584.45;;;5.11;70.10
56825;BME280;42705;50.326;18.772;2023-02-22T07:16:05;98587.73;;;5.08;69.87
56825;BME280;42705;50.326;18.772;2023-02-22T07:21:27;98594.23;;;4.91;69.65
56825;BME280;42705;50.326;18.772;2023-02-22T07:26:50;98595.69;;;4.87;69.98
56825;BME280;42705;50.326;18.772;2023-02-22T07:32:12;98599.36;;;4.89;69.79
56825;BME280;42705;50.326;18.772;2023-02-22T07:37:33;98594.37;;;4.84;69.77
56825;BME280;42705;50.326;18.772;2023-02-22T07:48:22;98593.30;;;4.70;70.13
56825;BME280;42705;50.326;18.772;2023-02-22T07:53:44;98597.34;;;4.91;70.47
56825;BME280;42705;50.326;18.772;2023-02-22T07:59:07;98603.61;;;5.14;70.67
56825;BME280;42705;50.326;18.772;2023-02-22T08:04:29;98599.13;;;5.30;70.58
56825;BME280;42705;50.326;18.772;2023-02-22T08:09:51;98597.07;;;5.38;70.27
56825;BME280;42705;50.326;18.772;2023-02-22T08:15:22;98597.44;;;5.42;70.01
56825;BME280;42705;50.326;18.772;2023-02-22T08:20:47;98597.58;;;5.45;70.09
56825;BME280;42705;50.326;18.772;2023-02-22T08:26:10;98597.25;;;5.61;70.29
56825;BME280;42705;50.326;18.772;2023-02-22T08:31:36;98599.36;;;5.78;70.21
56825;BME280;42705;50.326;18.772;2023-02-22T08:36:58;98608.43;;;5.85;69.97
56825;BME280;42705;50.326;18.772;2023-02-22T08:42:20;98611.82;;;5.73;69.51
56825;BME280;42705;50.326;18.772;2023-02-22T08:47:43;98613.90;;;5.58;69.37
56825;BME280;42705;50.326;18.772;2023-02-22T08:53:05;98616.02;;;5.57;69.98
56825;BME280;42705;50.326;18.772;2023-02-22T08:58:27;98617.64;;;5.64;69.74
56825;BME280;42705;50.326;18.772;2023-02-22T09:03:50;98621.92;;;5.49;69.93
56825;BME280;42705;50.326;18.772;2023-02-22T09:09:12;98624.52;;;5.65;70.23
56825;BME280;42705;50.326;18.772;2023-02-22T09:14:35;98622.27;;;5.77;70.21
56825;BME280;42705;50.326;18.772;2023-02-22T09:19:57;98625.00;;;5.93;70.07
56825;BME280;42705;50.326;18.772;2023-02-22T09:25:20;98619.52;;;6.08;69.94
56825;BME280;42705;50.326;18.772;2023-02-22T09:30:43;98625.81;;;6.35;69.92
56825;BME280;42705;50.326;18.772;2023-02-22T09:36:06;98627.25;;;6.44;69.26
56825;BME280;42705;50.326;18.772;2023-02-22T09:41:35;98622.46;;;6.40;68.94
56825;BME280;42705;50.326;18.772;2023-02-22T09:47:03;98620.23;;;6.25;68.73
56825;BME280;42705;50.326;18.772;2023-02-22T09:52:35;98620.14;;;6.19;68.62
56825;BME280;42705;50.326;18.772;2023-02-22T09:58:02;98619.86;;;6.31;68.74
56825;BME280;42705;50.326;18.772;2023-02-22T10:03:37;98617.52;;;6.36;68.46
56825;BME280;42705;50.326;18.772;2023-02-22T10:09:04;98615.81;;;6.41;68.20
56825;BME280;42705;50.326;18.772;2023-02-22T10:14:42;98610.02;;;6.43;68.04
56825;BME280;42705;50.326;18.772;2023-02-22T10:20:41;98607.30;;;6.46;67.96
56825;BME280;42705;50.326;18.772;2023-02-22T10:26:23;98602.23;;;6.74;67.76
56825;BME280;42705;50.326;18.772;2023-02-22T10:31:51;98600.23;;;7.08;67.71
56825;BME280;42705;50.326;18.772;2023-02-22T10:37:27;98597.23;;;7.49;67.39
56825;BME280;42705;50.326;18.772;2023-02-22T10:42:50;98594.85;;;7.85;66.70
56825;BME280;42705;50.326;18.772;2023-02-22T10:48:15;98589.54;;;8.02;66.00
56825;BME280;42705;50.326;18.772;2023-02-22T10:53:39;98591.04;;;8.18;65.09
56825;BME280;42705;50.326;18.772;2023-02-22T10:59:04;98592.48;;;8.33;64.50
56825;BME280;42705;50.326;18.772;2023-02-22T11:04:47;98588.27;;;8.31;63.41
56825;BME280;42705;50.326;18.772;2023-02-22T11:10:10;98583.39;;;8.29;62.88
56825;BME280;42705;50.326;18.772;2023-02-22T11:15:32;98578.14;;;8.30;62.63
56825;BME280;42705;50.326;18.772;2023-02-22T11:21:07;98573.99;;;8.36;62.33
56825;BME280;42705;50.326;18.772;2023-02-22T11:26:37;98574.98;;;8.44;62.19
56825;BME280;42705;50.326;18.772;2023-02-22T11:32:12;98573.33;;;8.56;61.52
56825;BME280;42705;50.326;18.772;2023-02-22T11:37:35;98568.15;;;8.62;60.97
56825;BME280;42705;50.326;18.772;2023-02-22T11:43:18;98568.00;;;8.67;60.40
56825;BME280;42705;50.326;18.772;2023-02-22T11:48:52;98563.73;;;8.71;60.27
56825;BME280;42705;50.326;18.772;2023-02-22T11:54:36;98558.72;;;8.73;59.72
56825;BME280;42705;50.326;18.772;2023-02-22T12:12:29;98555.80;;;8.85;58.56
56825;BME280;42705;50.326;18.772;2023-02-22T12:23:46;98549.39;;;8.93;57.83
56825;BME280;42705;50.326;18.772;2023-02-22T12:29:20;98553.19;;;9.00;57.81
56825;BME280;42705;50.326;18.772;2023-02-22T12:34:51;98550.70;;;9.03;57.61
56825;BME280;42705;50.326;18.772;2023-02-22T12:41:39;98553.36;;;9.19;56.83
56825;BME280;42705;50.326;18.772;2023-02-22T12:46:35;98543.40;;;9.28;56.92
56825;BME280;42705;50.326;18.772;2023-02-22T13:08:40;98541.23;;;9.68;55.36
56825;BME280;42705;50.326;18.772;2023-02-22T13:14:15;98535.86;;;9.64;54.50
56825;BME280;42705;50.326;18.772;2023-02-22T13:25:19;98530.81;;;9.65;54.33
56825;BME280;42705;50.326;18.772;2023-02-22T13:42:03;98539.50;;;9.22;54.14
56825;BME280;42705;50.326;18.772;2023-02-22T13:53:15;98532.77;;;9.00;54.22
56825;BME280;42705;50.326;18.772;2023-02-22T13:58:54;98526.05;;;8.87;54.33
56825;BME280;42705;50.326;18.772;2023-02-22T14:09:53;98526.27;;;9.01;54.34
56825;BME280;42705;50.326;18.772;2023-02-22T14:15:18;98521.90;;;9.57;53.78
56825;BME280;42705;50.326;18.772;2023-02-22T14:20:43;98520.05;;;10.33;53.29
56825;BME280;42705;50.326;18.772;2023-02-22T14:37:20;98528.85;;;10.90;51.91
56825;BME280;42705;50.326;18.772;2023-02-22T14:42:54;98523.58;;;12.33;50.75
56825;BME280;42705;50.326;18.772;2023-02-22T14:48:32;98522.55;;;12.88;50.37
56825;BME280;42705;50.326;18.772;2023-02-22T14:54:46;98519.98;;;12.52;49.57
56825;BME280;42705;50.326;18.772;2023-02-22T15:06:06;98526.95;;;11.17;49.77
56825;BME280;42705;50.326;18.772;2023-02-22T15:11:30;98527.46;;;11.43;49.57
56825;BME280;42705;50.326;18.772;2023-02-22T15:16:58;98521.32;;;12.18;49.06
56825;BME280;42705;50.326;18.772;2023-02-22T15:22:27;98520.21;;;12.39;48.64
56825;BME280;42705;50.326;18.772;2023-02-22T15:27:52;98513.65;;;12.44;48.72
56825;BME280;42705;50.326;18.772;2023-02-22T15:33:16;98512.40;;;12.62;48.19
56825;BME280;42705;50.326;18.772;2023-02-22T15:38:38;98516.89;;;12.42;47.73
56825;BME280;42705;50.326;18.772;2023-02-22T15:44:06;98512.34;;;12.04;47.70
56825;BME280;42705;50.326;18.772;2023-02-22T15:49:28;98513.02;;;11.50;47.80
56825;BME280;42705;50.326;18.772;2023-02-22T15:54:55;98518.61;;;10.89;47.81
56825;BME280;42705;50.326;18.772;2023-02-22T16:00:27;98516.26;;;10.39;48.14
56825;BME280;42705;50.326;18.772;2023-02-22T16:05:57;98522.55;;;9.91;48.83
56825;BME280;42705;50.326;18.772;2023-02-22T16:11:31;98529.86;;;9.50;48.90
56825;BME280;42705;50.326;18.772;2023-02-22T16:17:36;98535.21;;;9.07;49.36
56825;BME280;42705;50.326;18.772;2023-02-22T16:22:59;98534.48;;;8.62;49.88
56825;BME280;42705;50.326;18.772;2023-02-22T16:28:26;98538.77;;;8.26;50.22
56825;BME280;42705;50.326;18.772;2023-02-22T16:33:52;98539.85;;;7.90;50.52
56825;BME280;42705;50.326;18.772;2023-02-22T16:39:25;98542.88;;;7.55;50.91
56825;BME280;42705;50.326;18.772;2023-02-22T16:44:51;98546.80;;;7.26;51.37
56825;BME280;42705;50.326;18.772;2023-02-22T16:50:13;98549.00;;;6.99;51.70
56825;BME280;42705;50.326;18.772;2023-02-22T16:55:40;98553.98;;;6.76;52.03
56825;BME280;42705;50.326;18.772;2023-02-22T17:01:05;98554.30;;;6.52;52.15
56825;BME280;42705;50.326;18.772;2023-02-22T17:06:27;98555.52;;;6.33;52.71
56825;BME280;42705;50.326;18.772;2023-02-22T17:11:50;98564.70;;;6.16;52.97
56825;BME280;42705;50.326;18.772;2023-02-22T17:17:14;98563.14;;;6.01;53.40
56825;BME280;42705;50.326;18.772;2023-02-22T17:22:36;98563.73;;;5.84;53.34
56825;BME280;42705;50.326;18.772;2023-02-22T17:27:59;98559.54;;;5.67;53.54
56825;BME280;42705;50.326;18.772;2023-02-22T17:33:23;98561.67;;;5.51;53.82
56825;BME280;42705;50.326;18.772;2023-02-22T17:38:48;98558.53;;;5.39;54.20
56825;BME280;42705;50.326;18.772;2023-02-22T17:44:10;98560.96;;;5.33;54.20
56825;BME280;42705;50.326;18.772;2023-02-22T17:49:33;98564.84;;;5.27;54.21
56825;BME280;42705;50.326;18.772;2023-02-22T17:54:55;98567.92;;;5.20;54.70
56825;BME280;42705;50.326;18.772;2023-02-22T18:00:18;98572.16;;;5.13;54.71
56825;BME280;42705;50.326;18.772;2023-02-22T18:05:47;98571.60;;;5.06;55.00
56825;BME280;42705;50.326;18.772;2023-02-22T18:11:09;98568.34;;;4.98;55.11
56825;BME280;42705;50.326;18.772;2023-02-22T18:16:31;98570.42;;;4.90;55.14
56825;BME280;42705;50.326;18.772;2023-02-22T18:21:54;98570.73;;;4.82;55.59
56825;BME280;42705;50.326;18.772;2023-02-22T18:27:20;98571.80;;;4.79;55.80
56825;BME280;42705;50.326;18.772;2023-02-22T18:32:44;98574.59;;;4.79;55.86
56825;BME280;42705;50.326;18.772;2023-02-22T18:38:06;98574.17;;;4.83;56.11
56825;BME280;42705;50.326;18.772;2023-02-22T18:43:29;98575.25;;;4.87;56.34
56825;BME280;42705;50.326;18.772;2023-02-22T18:48:54;98573.84;;;4.93;56.48
56825;BME280;42705;50.326;18.772;2023-02-22T18:54:16;98575.13;;;4.97;56.43
56825;BME280;42705;50.326;18.772;2023-02-22T18:59:41;98574.94;;;5.03;56.47
56825;BME280;42705;50.326;18.772;2023-02-22T19:05:04;98569.15;;;5.06;56.64
56825;BME280;42705;50.326;18.772;2023-02-22T19:10:27;98566.64;;;5.11;56.84
56825;BME280;42705;50.326;18.772;2023-02-22T19:15:49;98570.40;;;5.14;56.70
56825;BME280;42705;50.326;18.772;2023-02-22T19:21:13;98560.05;;;5.16;56.61
56825;BME280;42705;50.326;18.772;2023-02-22T19:26:35;98557.25;;;5.16;56.70
56825;BME280;42705;50.326;18.772;2023-02-22T19:31:57;98558.92;;;5.15;56.70
56825;BME280;42705;50.326;18.772;2023-02-22T19:37:20;98564.43;;;5.13;56.84
56825;BME280;42705;50.326;18.772;2023-02-22T19:42:43;98566.35;;;5.10;56.83
56825;BME280;42705;50.326;18.772;2023-02-22T19:48:06;98569.39;;;5.05;56.97
56825;BME280;42705;50.326;18.772;2023-02-22T19:53:32;98569.58;;;4.98;56.91
56825;BME280;42705;50.326;18.772;2023-02-22T19:58:57;98569.50;;;4.88;56.96
56825;BME280;42705;50.326;18.772;2023-02-22T20:04:23;98575.55;;;4.69;56.97
56825;BME280;42705;50.326;18.772;2023-02-22T20:09:46;98573.23;;;4.46;57.16
56825;BME280;42705;50.326;18.772;2023-02-22T20:15:10;98578.02;;;4.24;57.47
56825;BME280;42705;50.326;18.772;2023-02-22T20:20:34;98577.54;;;4.02;57.83
56825;BME280;42705;50.326;18.772;2023-02-22T20:25:58;98578.40;;;3.88;58.03
56825;BME280;42705;50.326;18.772;2023-02-22T20:31:20;98576.25;;;3.78;58.19
56825;BME280;42705;50.326;18.772;2023-02-22T20:36:45;98580.27;;;3.68;58.44
56825;BME280;42705;50.326;18.772;2023-02-22T20:42:08;98576.70;;;3.55;58.29
56825;BME280;42705;50.326;18.772;2023-02-22T20:47:33;98575.13;;;3.47;58.73
56825;BME280;42705;50.326;18.772;2023-02-22T20:52:55;98576.70;;;3.38;58.86
56825;BME280;42705;50.326;18.772;2023-02-22T20:58:20;98574.66;;;3.29;59.06
56825;BME280;42705;50.326;18.772;2023-02-22T21:03:44;98572.06;;;3.20;59.17
56825;BME280;42705;50.326;18.772;2023-02-22T21:09:12;98571.70;;;3.14;59.48
56825;BME280;42705;50.326;18.772;2023-02-22T21:14:35;98575.20;;;3.14;59.79
56825;BME280;42705;50.326;18.772;2023-02-22T21:19:58;98570.72;;;3.22;59.94
56825;BME280;42705;50.326;18.772;2023-02-22T21:25:21;98571.11;;;3.33;60.31
56825;BME280;42705;50.326;18.772;2023-02-22T21:30:45;98569.84;;;3.32;60.00
56825;BME280;42705;50.326;18.772;2023-02-22T21:36:10;98565.30;;;3.20;59.97
56825;BME280;42705;50.326;18.772;2023-02-22T21:41:34;98562.13;;;3.13;60.06
56825;BME280;42705;50.326;18.772;2023-02-22T21:46:57;98557.41;;;3.05;60.27
56825;BME280;42705;50.326;18.772;2023-02-22T21:52:20;98554.42;;;2.94;60.31
56825;BME280;42705;50.326;18.772;2023-02-22T21:57:42;98548.77;;;2.81;60.64
56825;BME280;42705;50.326;18.772;2023-02-22T22:03:04;98550.74;;;2.74;60.62
56825;BME280;42705;50.326;18.772;2023-02-22T22:08:33;98548.20;;;2.67;60.73
56825;BME280;42705;50.326;18.772;2023-02-22T22:13:56;98548.38;;;2.54;60.84
56825;BME280;42705;50.326;18.772;2023-02-22T22:19:20;98550.60;;;2.52;61.11
56825;BME280;42705;50.326;18.772;2023-02-22T22:24:43;98546.16;;;2.57;61.53
56825;BME280;42705;50.326;18.772;2023-02-22T22:30:07;98540.65;;;2.57;61.32
56825;BME280;42705;50.326;18.772;2023-02-22T22:35:32;98536.17;;;2.57;61.51
56825;BME280;42705;50.326;18.772;2023-02-22T22:41:00;98534.30;;;2.44;61.48
56825;BME280;42705;50.326;18.772;2023-02-22T22:46:22;98536.35;;;2.28;61.52
56825;BME280;42705;50.326;18.772;2023-02-22T22:51:44;98535.36;;;2.18;61.83
56825;BME280;42705;50.326;18.772;2023-02-22T22:57:09;98537.07;;;2.12;62.10
56825;BME280;42705;50.326;18.772;2023-02-22T23:02:31;98539.69;;;2.12;62.35
56825;BME280;42705;50.326;18.772;2023-02-22T23:07:54;98542.91;;;2.13;62.48
56825;BME280;42705;50.326;18.772;2023-02-22T23:13:17;98542.14;;;2.05;62.60
56825;BME280;42705;50.326;18.772;2023-02-22T23:18:40;98545.23;;;1.98;62.96
56825;BME280;42705;50.326;18.772;2023-02-22T23:24:04;98544.35;;;1.92;63.28
56825;BME280;42705;50.326;18.772;2023-02-22T23:29:27;98547.63;;;1.85;63.21
56825;BME280;42705;50.326;18.772;2023-02-22T23:34:51;98547.67;;;1.79;63.38
56825;BME280;42705;50.326;18.772;2023-02-22T23:40:15;98548.59;;;1.74;63.85
56825;BME280;42705;50.326;18.772;2023-02-22T23:45:37;98550.97;;;1.78;64.11
56825;BME280;42705;50.326;18.772;2023-02-22T23:51:05;98548.70;;;1.82;64.12
56825;BME280;42705;50.326;18.772;2023-02-22T23:56:29;98551.20;;;1.83;64.33
